createdAt,value
2018-06-13T00:01:54.439Z,98457.41
2018-06-13T00:04:24.494Z,98465.98
2018-06-13T00:06:54.631Z,98458.58
2018-06-13T00:09:25.052Z,98452.05
2018-06-13T00:11:54.893Z,98458.59
2018-06-13T00:14:25.240Z,98459.77
2018-06-13T00:16:54.741Z,98459.08
2018-06-13T00:19:24.584Z,98450.52
2018-06-13T00:21:55.109Z,98450.70
2018-06-13T00:24:24.893Z,98450.03
2018-06-13T00:26:54.731Z,98441.30
2018-06-13T00:29:24.311Z,98439.95
2018-06-13T00:31:53.854Z,98447.34
2018-06-13T00:34:23.779Z,98448.03
2018-06-13T00:36:54.611Z,98442.01
2018-06-13T00:39:22.975Z,98443.33
2018-06-13T00:41:51.250Z,98446.72
2018-06-13T00:44:19.571Z,98440.65
2018-06-13T00:46:47.879Z,98443.03
2018-06-13T00:49:16.195Z,98442.49
2018-06-13T00:51:44.471Z,98447.71
2018-06-13T00:54:12.786Z,98447.38
2018-06-13T00:56:41.166Z,98445.52
2018-06-13T00:59:09.475Z,98447.70
2018-06-13T01:01:37.813Z,98444.69
2018-06-13T01:04:06.187Z,98448.57
2018-06-13T01:06:34.472Z,98446.55
2018-06-13T01:09:02.870Z,98436.13
2018-06-13T01:11:31.210Z,98424.23
2018-06-13T01:13:59.542Z,98428.27
2018-06-13T01:16:27.859Z,98428.12
2018-06-13T01:18:56.682Z,98425.58
2018-06-13T01:21:25.015Z,98426.26
2018-06-13T01:23:53.395Z,98418.87
2018-06-13T01:26:21.819Z,98423.56
2018-06-13T01:28:50.157Z,98419.05
2018-06-13T01:31:18.430Z,98415.36
2018-06-13T01:33:46.750Z,98418.39
2018-06-13T01:36:15.807Z,98414.86
2018-06-13T01:38:44.163Z,98417.88
2018-06-13T01:41:12.463Z,98412.84
2018-06-13T01:43:40.819Z,98416.20
2018-06-13T01:46:09.107Z,98422.91
2018-06-13T01:48:37.742Z,98421.22
2018-06-13T01:51:06.016Z,98426.91
2018-06-13T01:53:34.355Z,98419.55
2018-06-13T01:56:02.625Z,98421.91
2018-06-13T01:58:30.969Z,98425.94
2018-06-13T02:00:59.297Z,98425.59
2018-06-13T02:03:27.643Z,98424.56
2018-06-13T02:05:56.054Z,98419.22
2018-06-13T02:08:24.396Z,98418.86
2018-06-13T02:10:52.705Z,98417.18
2018-06-13T02:13:20.974Z,98413.16
2018-06-13T02:15:49.610Z,98417.18
2018-06-13T02:18:18.010Z,98424.55
2018-06-13T02:20:46.343Z,98428.39
2018-06-13T02:23:14.626Z,98428.39
2018-06-13T02:25:42.982Z,98432.94
2018-06-13T02:28:11.294Z,98436.11
2018-06-13T02:30:39.610Z,98430.58
2018-06-13T02:33:07.890Z,98438.96
2018-06-13T02:35:36.186Z,98431.59
2018-06-13T02:38:04.462Z,98439.63
2018-06-13T02:40:32.768Z,98441.14
2018-06-13T02:43:01.031Z,98434.27
2018-06-13T02:45:29.330Z,98436.64
2018-06-13T02:47:57.592Z,98428.59
2018-06-13T02:50:25.932Z,98434.27
2018-06-13T02:52:54.231Z,98431.76
2018-06-13T02:55:22.602Z,98431.42
2018-06-13T02:57:50.873Z,98435.95
2018-06-13T03:00:19.212Z,98432.27
2018-06-13T03:02:47.478Z,98433.91
2018-06-13T03:05:15.807Z,98428.23
2018-06-13T03:07:44.123Z,98430.42
2018-06-13T03:10:12.477Z,98425.89
2018-06-13T03:12:40.829Z,98424.55
2018-06-13T03:15:09.151Z,98432.43
2018-06-13T03:17:37.510Z,98436.45
2018-06-13T03:20:05.834Z,98432.42
2018-06-13T03:22:34.103Z,98437.63
2018-06-13T03:25:02.423Z,98430.41
2018-06-13T03:27:30.755Z,98434.08
2018-06-13T03:29:59.074Z,98431.23
2018-06-13T03:32:27.382Z,98437.94
2018-06-13T03:34:55.737Z,98441.62
2018-06-13T03:37:24.022Z,98443.98
2018-06-13T03:39:52.459Z,98433.23
2018-06-13T03:42:20.847Z,98433.42
2018-06-13T03:44:49.226Z,98437.12
2018-06-13T03:47:17.550Z,98437.45
2018-06-13T03:49:45.991Z,98443.47
2018-06-13T03:52:14.307Z,98445.48
2018-06-13T03:54:42.611Z,98438.61
2018-06-13T03:57:10.903Z,98440.95
2018-06-13T03:59:39.290Z,98444.97
2018-06-13T04:02:07.611Z,98443.65
2018-06-13T04:04:35.896Z,98442.31
2018-06-13T04:07:04.502Z,98445.33
2018-06-13T04:09:32.785Z,98436.93
2018-06-13T04:12:02.853Z,98444.97
2018-06-13T04:14:31.146Z,98441.62
2018-06-13T04:19:26.862Z,98445.11
2018-06-13T04:21:55.281Z,98451.14
2018-06-13T04:24:23.639Z,98452.02
2018-06-13T04:26:51.951Z,98454.55
2018-06-13T04:29:20.217Z,98453.02
2018-06-13T04:31:48.567Z,98446.14
2018-06-13T04:34:16.835Z,98447.66
2018-06-13T04:36:45.184Z,98440.64
2018-06-13T04:39:13.442Z,98438.77
2018-06-13T04:41:41.810Z,98436.26
2018-06-13T04:44:10.088Z,98443.99
2018-06-13T04:46:38.429Z,98452.05
2018-06-13T04:49:06.702Z,98457.40
2018-06-13T04:51:36.000Z,98459.22
2018-06-13T04:54:04.333Z,98459.91
2018-06-13T04:56:32.641Z,98462.06
2018-06-13T04:59:00.949Z,98471.28
2018-06-13T05:01:29.258Z,98475.13
2018-06-13T05:03:57.532Z,98468.43
2018-06-13T05:06:25.910Z,98473.08
2018-06-13T05:08:54.177Z,98476.27
2018-06-13T05:11:23.042Z,98479.73
2018-06-13T05:13:51.306Z,98472.58
2018-06-13T05:16:19.663Z,98483.80
2018-06-13T05:18:47.934Z,98486.15
2018-06-13T05:21:17.054Z,98484.81
2018-06-13T05:23:45.318Z,98486.48
2018-06-13T05:26:13.655Z,98483.84
2018-06-13T05:28:42.299Z,98488.82
2018-06-13T05:31:10.575Z,98489.49
2018-06-13T05:33:38.888Z,98495.03
2018-06-13T05:36:07.203Z,98502.52
2018-06-13T05:38:35.506Z,98505.36
2018-06-13T05:41:03.816Z,98504.69
2018-06-13T05:43:32.148Z,98506.59
2018-06-13T05:46:07.236Z,98510.60
2018-06-13T05:48:35.682Z,98508.58
2018-06-13T05:51:04.015Z,98509.19
2018-06-13T05:53:32.382Z,98517.48
2018-06-13T05:56:01.387Z,98521.54
2018-06-13T05:58:29.763Z,98526.41
2018-06-13T06:00:58.107Z,98526.36
2018-06-13T06:03:26.430Z,98521.72
2018-06-13T06:05:55.039Z,98534.05
2018-06-13T06:08:26.897Z,98526.69
2018-06-13T06:10:55.252Z,98528.64
2018-06-13T06:13:23.538Z,98533.34
2018-06-13T06:15:51.926Z,98528.20
2018-06-13T06:18:20.467Z,98522.21
2018-06-13T06:20:48.756Z,98534.12
2018-06-13T06:23:17.508Z,98529.42
2018-06-13T06:25:46.191Z,98536.84
2018-06-13T06:28:14.575Z,98534.44
2018-06-13T06:30:42.915Z,98529.55
2018-06-13T06:33:11.412Z,98526.73
2018-06-13T06:35:39.676Z,98529.43
2018-06-13T06:38:08.003Z,98536.95
2018-06-13T06:40:36.272Z,98542.66
2018-06-13T06:43:04.627Z,98538.19
2018-06-13T06:45:32.996Z,98547.40
2018-06-13T06:48:01.414Z,98550.20
2018-06-13T06:50:29.740Z,98546.17
2018-06-13T06:52:58.107Z,98547.86
2018-06-13T06:55:26.542Z,98546.56
2018-06-13T06:57:54.938Z,98550.13
2018-06-13T07:00:23.216Z,98552.15
2018-06-13T07:02:51.579Z,98547.68
2018-06-13T07:05:19.866Z,98548.35
2018-06-13T07:07:48.255Z,98556.52
2018-06-13T07:10:16.561Z,98556.06
2018-06-13T07:12:44.933Z,98550.42
2018-06-13T07:15:13.230Z,98553.44
2018-06-13T07:17:42.599Z,98547.23
2018-06-13T07:20:10.883Z,98551.86
2018-06-13T07:22:39.261Z,98553.22
2018-06-13T07:25:07.538Z,98555.58
2018-06-13T07:27:35.982Z,98557.86
2018-06-13T07:30:04.318Z,98560.59
2018-06-13T07:32:32.714Z,98559.38
2018-06-13T07:35:01.098Z,98569.23
2018-06-13T07:37:29.528Z,98563.89
2018-06-13T07:39:57.955Z,98567.97
2018-06-13T07:42:26.289Z,98560.42
2018-06-13T07:44:54.671Z,98569.25
2018-06-13T07:47:23.128Z,98567.97
2018-06-13T07:49:51.560Z,98562.27
2018-06-13T07:52:19.842Z,98558.34
2018-06-13T07:54:48.658Z,98568.97
2018-06-13T07:57:17.027Z,98559.92
2018-06-13T07:59:45.742Z,98568.28
2018-06-13T08:02:14.164Z,98562.88
2018-06-13T08:04:42.510Z,98561.83
2018-06-13T08:07:10.799Z,98559.47
2018-06-13T08:09:39.189Z,98561.42
2018-06-13T08:12:07.550Z,98562.11
2018-06-13T08:14:35.918Z,98563.31
2018-06-13T08:17:04.227Z,98566.79
2018-06-13T08:19:32.613Z,98567.99
2018-06-13T08:22:00.958Z,98565.66
2018-06-13T08:24:29.791Z,98570.35
2018-06-13T08:26:58.065Z,98576.31
2018-06-13T08:29:26.409Z,98577.71
2018-06-13T08:31:55.139Z,98572.66
2018-06-13T08:34:23.526Z,98571.67
2018-06-13T08:36:52.208Z,98571.31
2018-06-13T08:39:20.891Z,98573.83
2018-06-13T08:41:50.719Z,98571.79
2018-06-13T08:44:19.444Z,98568.77
2018-06-13T08:46:47.825Z,98570.81
2018-06-13T08:49:16.201Z,98574.09
2018-06-13T08:51:44.494Z,98575.67
2018-06-13T08:54:12.817Z,98568.70
2018-06-13T08:56:41.123Z,98568.47
2018-06-13T08:59:09.447Z,98572.52
2018-06-13T09:01:37.814Z,98565.81
2018-06-13T09:04:06.249Z,98568.13
2018-06-13T09:06:34.603Z,98570.31
2018-06-13T09:09:02.942Z,98570.14
2018-06-13T09:11:31.242Z,98567.34
2018-06-13T09:13:59.577Z,98568.16
2018-06-13T09:16:27.985Z,98565.30
2018-06-13T09:18:56.317Z,98567.31
2018-06-13T09:21:24.755Z,98571.36
2018-06-13T09:23:53.050Z,98570.52
2018-06-13T09:26:21.366Z,98578.23
2018-06-13T09:28:49.759Z,98574.20
2018-06-13T09:31:18.092Z,98573.86
2018-06-13T09:33:46.463Z,98573.20
2018-06-13T09:36:14.815Z,98582.95
2018-06-13T09:38:44.058Z,98575.06
2018-06-13T09:41:12.578Z,98573.53
2018-06-13T09:43:40.856Z,98572.94
2018-06-13T09:46:12.014Z,98561.98
2018-06-13T09:48:37.510Z,98561.22
2018-06-13T09:51:05.875Z,98555.60
2018-06-13T09:53:34.271Z,98553.73
2018-06-13T09:56:02.602Z,98553.02
2018-06-13T09:58:35.046Z,98556.33
2018-06-13T10:01:07.683Z,98563.96
2018-06-13T10:03:36.310Z,98566.42
2018-06-13T10:06:04.843Z,98571.95
2018-06-13T10:08:33.124Z,98572.09
2018-06-13T10:11:01.478Z,98573.88
2018-06-13T10:13:29.814Z,98573.77
2018-06-13T10:15:58.211Z,98588.59
2018-06-13T10:18:27.267Z,98592.42
2018-06-13T10:20:55.875Z,98582.39
2018-06-13T10:23:24.145Z,98586.86
2018-06-13T10:25:52.489Z,98584.88
2018-06-13T10:28:20.750Z,98587.73
2018-06-13T10:30:49.061Z,98583.98
2018-06-13T10:33:17.329Z,98596.95
2018-06-13T10:35:45.657Z,98595.23
2018-06-13T10:38:13.930Z,98601.67
2018-06-13T10:40:42.295Z,98595.06
2018-06-13T10:43:10.656Z,98613.72
2018-06-13T10:45:38.995Z,98610.73
2018-06-13T10:48:07.270Z,98613.27
2018-06-13T10:50:35.659Z,98616.14
2018-06-13T10:53:04.935Z,98619.98
2018-06-13T10:55:33.371Z,98626.88
2018-06-13T10:58:01.650Z,98625.24
2018-06-13T11:00:30.050Z,98633.77
2018-06-13T11:02:58.440Z,98635.25
2018-06-13T11:05:26.780Z,98625.32
2018-06-13T11:07:55.087Z,98632.94
2018-06-13T11:10:23.407Z,98629.34
2018-06-13T11:12:51.802Z,98628.09
2018-06-13T11:15:20.129Z,98629.27
2018-06-13T11:17:48.541Z,98624.22
2018-06-13T11:20:16.863Z,98625.22
2018-06-13T11:22:45.568Z,98622.03
2018-06-13T11:25:13.924Z,98612.30
2018-06-13T11:27:42.235Z,98621.00
2018-06-13T11:30:10.547Z,98604.98
2018-06-13T11:32:38.930Z,98600.86
2018-06-13T11:35:08.049Z,98600.87
2018-06-13T11:37:37.394Z,98602.70
2018-06-13T11:40:06.138Z,98600.20
2018-06-13T11:42:34.681Z,98603.75
2018-06-13T11:45:02.995Z,98604.07
2018-06-13T11:47:31.367Z,98601.00
2018-06-13T11:49:59.702Z,98599.88
2018-06-13T11:52:28.022Z,98614.52
2018-06-13T11:54:56.390Z,98611.98
2018-06-13T11:57:24.886Z,98611.30
2018-06-13T11:59:53.318Z,98608.68
2018-06-13T12:02:21.712Z,98603.89
2018-06-13T12:04:50.218Z,98607.64
2018-06-13T12:07:18.901Z,98596.78
2018-06-13T12:09:47.510Z,98605.16
2018-06-13T12:12:16.103Z,98602.46
2018-06-13T12:14:44.497Z,98609.77
2018-06-13T12:17:12.881Z,98619.48
2018-06-13T12:19:41.238Z,98611.66
2018-06-13T12:22:09.594Z,98602.03
2018-06-13T12:24:37.867Z,98612.90
2018-06-13T12:27:06.286Z,98609.46
2018-06-13T12:29:34.715Z,98608.20
2018-06-13T12:32:03.067Z,98601.72
2018-06-13T12:34:32.490Z,98596.57
2018-06-13T12:37:00.889Z,98597.11
2018-06-13T12:39:29.259Z,98597.47
2018-06-13T12:41:57.566Z,98602.64
2018-06-13T12:44:26.260Z,98601.63
2018-06-13T12:46:54.799Z,98602.83
2018-06-13T12:49:23.112Z,98597.08
2018-06-13T12:51:51.598Z,98591.58
2018-06-13T12:54:19.944Z,98594.20
2018-06-13T12:56:48.277Z,98597.08
2018-06-13T12:59:16.607Z,98592.16
2018-06-13T13:01:44.932Z,98591.64
2018-06-13T13:04:14.420Z,98604.18
2018-06-13T13:06:42.779Z,98598.75
2018-06-13T13:09:12.995Z,98598.70
2018-06-13T13:11:41.646Z,98595.59
2018-06-13T13:14:09.959Z,98593.72
2018-06-13T13:16:38.315Z,98597.95
2018-06-13T13:19:06.718Z,98594.44
2018-06-13T13:21:35.066Z,98589.84
2018-06-13T13:24:03.655Z,98589.44
2018-06-13T13:26:31.969Z,98594.53
2018-06-13T13:29:00.372Z,98601.36
2018-06-13T13:31:28.778Z,98611.13
2018-06-13T13:33:57.195Z,98604.65
2018-06-13T13:36:25.574Z,98621.06
2018-06-13T13:38:53.974Z,98615.13
2018-06-13T13:41:22.300Z,98625.31
2018-06-13T13:43:51.328Z,98612.61
2018-06-13T13:46:19.778Z,98612.44
2018-06-13T13:48:48.083Z,98611.47
2018-06-13T13:51:16.529Z,98620.23
2018-06-13T13:53:44.799Z,98626.66
2018-06-13T13:56:13.298Z,98628.97
2018-06-13T13:58:41.655Z,98634.47
2018-06-13T14:01:10.016Z,98623.66
2018-06-13T14:03:38.603Z,98631.47
2018-06-13T14:06:06.954Z,98631.83
2018-06-13T14:08:35.347Z,98625.95
2018-06-13T14:11:03.687Z,98627.89
2018-06-13T14:13:31.998Z,98633.94
2018-06-13T14:16:00.316Z,98639.38
2018-06-13T14:18:28.642Z,98639.05
2018-06-13T14:20:56.913Z,98628.61
2018-06-13T14:23:25.809Z,98638.66
2018-06-13T14:25:54.098Z,98649.12
2018-06-13T14:28:22.513Z,98637.66
2018-06-13T14:30:50.799Z,98639.52
2018-06-13T14:33:19.646Z,98634.38
2018-06-13T14:35:48.154Z,98636.89
2018-06-13T14:38:16.556Z,98636.13
2018-06-13T14:40:44.960Z,98637.45
2018-06-13T14:43:13.434Z,98633.58
2018-06-13T14:45:41.854Z,98635.18
2018-06-13T14:48:10.145Z,98633.64
2018-06-13T14:50:38.564Z,98634.52
2018-06-13T14:53:06.821Z,98637.98
2018-06-13T14:55:41.380Z,98637.39
2018-06-13T14:58:09.943Z,98644.05
2018-06-13T15:00:38.286Z,98646.03
2018-06-13T15:03:06.650Z,98646.16
2018-06-13T15:05:35.022Z,98658.51
2018-06-13T15:08:03.493Z,98656.45
2018-06-13T15:10:31.798Z,98665.53
2018-06-13T15:13:00.234Z,98665.38
2018-06-13T15:15:28.591Z,98668.23
2018-06-13T15:17:56.927Z,98665.38
2018-06-13T15:20:25.311Z,98655.11
2018-06-13T15:22:53.818Z,98659.81
2018-06-13T15:25:22.222Z,98658.98
2018-06-13T15:27:50.590Z,98656.95
2018-06-13T15:30:18.898Z,98663.84
2018-06-13T15:32:47.262Z,98659.16
2018-06-13T15:35:15.685Z,98658.98
2018-06-13T15:37:44.049Z,98660.84
2018-06-13T15:40:12.373Z,98652.75
2018-06-13T15:42:40.702Z,98659.84
2018-06-13T15:45:09.027Z,98647.89
2018-06-13T15:47:37.322Z,98658.32
2018-06-13T15:50:05.690Z,98650.05
2018-06-13T15:52:33.984Z,98657.77
2018-06-13T15:55:02.316Z,98661.28
2018-06-13T15:57:30.631Z,98659.83
2018-06-13T15:59:58.989Z,98657.10
2018-06-13T16:02:27.250Z,98652.20
2018-06-13T16:04:55.535Z,98649.69
2018-06-13T16:07:24.024Z,98654.55
2018-06-13T16:09:52.339Z,98654.83
2018-06-13T16:12:20.783Z,98656.87
2018-06-13T16:14:49.107Z,98654.97
2018-06-13T16:17:17.472Z,98656.09
2018-06-13T16:19:45.814Z,98660.00
2018-06-13T16:22:14.229Z,98663.73
2018-06-13T16:24:42.498Z,98659.26
2018-06-13T16:27:10.921Z,98667.05
2018-06-13T16:29:39.440Z,98675.86
2018-06-13T16:32:08.099Z,98679.73
2018-06-13T16:34:36.379Z,98674.88
2018-06-13T16:37:04.855Z,98679.88
2018-06-13T16:39:33.203Z,98667.77
2018-06-13T16:42:01.732Z,98681.84
2018-06-13T16:44:30.071Z,98684.89
2018-06-13T16:46:58.502Z,98689.81
2018-06-13T16:49:26.787Z,98689.99
2018-06-13T16:52:02.150Z,98692.23
2018-06-13T16:54:42.583Z,98693.48
2018-06-13T16:57:12.373Z,98687.02
2018-06-13T16:59:41.656Z,98689.05
2018-06-13T17:02:18.937Z,98689.24
2018-06-13T17:04:48.711Z,98695.16
2018-06-13T17:07:18.437Z,98693.94
2018-06-13T17:09:48.169Z,98695.19
2018-06-13T17:12:17.035Z,98694.17
2018-06-13T17:14:45.784Z,98693.66
2018-06-13T17:17:27.606Z,98697.39
2018-06-13T17:20:02.814Z,98699.34
2018-06-13T17:22:31.234Z,98702.19
2018-06-13T17:24:59.550Z,98691.89
2018-06-13T17:27:27.960Z,98703.38
2018-06-13T17:29:56.657Z,98711.51
2018-06-13T17:32:25.731Z,98708.19
2018-06-13T17:34:58.593Z,98709.33
2018-06-13T17:37:27.288Z,98712.87
2018-06-13T17:39:55.614Z,98719.27
2018-06-13T17:42:24.027Z,98722.59
2018-06-13T17:44:52.355Z,98722.95
2018-06-13T17:47:20.675Z,98723.79
2018-06-13T17:49:49.062Z,98728.20
2018-06-13T17:52:17.618Z,98738.44
2018-06-13T17:54:46.066Z,98733.38
2018-06-13T17:57:14.411Z,98731.86
2018-06-13T17:59:42.689Z,98734.40
2018-06-13T18:02:11.828Z,98739.45
2018-06-13T18:04:41.026Z,98740.14
2018-06-13T18:07:09.555Z,98739.14
2018-06-13T18:09:38.037Z,98747.69
2018-06-13T18:12:06.368Z,98748.20
2018-06-13T18:14:34.766Z,98749.56
2018-06-13T18:17:03.122Z,98751.23
2018-06-13T18:19:31.833Z,98753.92
2018-06-13T18:22:00.213Z,98750.87
2018-06-13T18:24:32.923Z,98755.42
2018-06-13T18:27:02.514Z,98759.97
2018-06-13T18:29:31.571Z,98759.47
2018-06-13T18:32:00.873Z,98762.27
2018-06-13T18:34:29.290Z,98758.93
2018-06-13T18:36:58.757Z,98772.41
2018-06-13T18:39:27.109Z,98768.19
2018-06-13T18:41:55.422Z,98775.75
2018-06-13T18:44:23.787Z,98777.45
2018-06-13T18:46:52.298Z,98778.78
2018-06-13T18:49:22.167Z,98780.59
2018-06-13T18:51:52.277Z,98782.61
2018-06-13T18:54:20.604Z,98780.76
2018-06-13T18:56:49.282Z,98782.11
2018-06-13T18:59:17.591Z,98785.80
2018-06-13T19:01:46.223Z,98788.31
2018-06-13T19:04:14.607Z,98795.04
2018-06-13T19:06:43.361Z,98793.86
2018-06-13T19:09:12.195Z,98791.40
2018-06-13T19:11:41.390Z,98795.27
2018-06-13T19:14:10.532Z,98789.37
2018-06-13T19:16:39.672Z,98788.99
2018-06-13T19:19:08.479Z,98790.81
2018-06-13T19:21:38.010Z,98792.49
2018-06-13T19:24:06.643Z,98792.62
2018-06-13T19:26:34.958Z,98788.13
2018-06-13T19:29:03.314Z,98789.47
2018-06-13T19:31:31.863Z,98787.63
2018-06-13T19:34:00.183Z,98789.27
2018-06-13T19:36:28.550Z,98795.44
2018-06-13T19:38:57.009Z,98797.48
2018-06-13T19:41:25.339Z,98802.14
2018-06-13T19:43:56.498Z,98803.47
2018-06-13T19:46:24.866Z,98793.08
2018-06-13T19:48:54.319Z,98796.60
2018-06-13T19:51:22.658Z,98803.44
2018-06-13T19:53:56.426Z,98810.86
2018-06-13T19:56:29.083Z,98817.33
2018-06-13T19:58:57.643Z,98820.70
2018-06-13T20:01:26.091Z,98818.45
2018-06-13T20:03:59.781Z,98819.47
2018-06-13T20:06:28.190Z,98815.26
2018-06-13T20:08:56.513Z,98813.75
2018-06-13T20:11:24.849Z,98804.19
2018-06-13T20:13:58.539Z,98814.56
2018-06-13T20:16:43.656Z,98808.61
2018-06-13T20:19:17.391Z,98810.80
2018-06-13T20:21:45.811Z,98815.09
2018-06-13T20:24:14.228Z,98813.23
2018-06-13T20:26:47.958Z,98819.77
2018-06-13T20:29:21.802Z,98816.23
2018-06-13T20:31:53.123Z,98820.67
2018-06-13T20:34:21.620Z,98815.93
2018-06-13T20:36:49.923Z,98818.78
2018-06-13T20:39:18.812Z,98818.62
2018-06-13T20:41:47.235Z,98820.70
2018-06-13T20:44:15.617Z,98828.43
2018-06-13T20:46:44.151Z,98833.47
2018-06-13T20:49:12.470Z,98830.67
2018-06-13T20:51:40.773Z,98835.86
2018-06-13T20:54:09.063Z,98834.53
2018-06-13T20:56:37.422Z,98837.20
2018-06-13T20:59:05.895Z,98839.06
2018-06-13T21:01:34.287Z,98837.90
2018-06-13T21:04:02.626Z,98834.11
2018-06-13T21:06:30.995Z,98841.59
2018-06-13T21:08:59.286Z,98844.53
2018-06-13T21:11:27.649Z,98844.27
2018-06-13T21:13:55.943Z,98847.47
2018-06-13T21:16:24.318Z,98844.45
2018-06-13T21:18:52.628Z,98848.20
2018-06-13T21:21:20.948Z,98845.17
2018-06-13T21:23:49.308Z,98842.57
2018-06-13T21:26:17.739Z,98844.92
2018-06-13T21:28:46.057Z,98842.36
2018-06-13T21:31:14.589Z,98845.20
2018-06-13T21:33:42.846Z,98846.19
2018-06-13T21:36:11.173Z,98846.61
2018-06-13T21:38:39.540Z,98843.02
2018-06-13T21:41:07.879Z,98853.50
2018-06-13T21:43:36.268Z,98849.64
2018-06-13T21:46:04.607Z,98851.73
2018-06-13T21:48:32.963Z,98851.38
2018-06-13T21:51:01.317Z,98846.62
2018-06-13T21:53:29.755Z,98850.64
2018-06-13T21:55:58.086Z,98846.09
2018-06-13T21:58:26.404Z,98843.47
2018-06-13T22:00:55.263Z,98842.29
2018-06-13T22:03:23.803Z,98843.84
2018-06-13T22:05:52.129Z,98839.77
2018-06-13T22:08:20.407Z,98838.88
2018-06-13T22:10:48.778Z,98841.13
2018-06-13T22:13:17.058Z,98832.34
2018-06-13T22:15:45.859Z,98835.66
2018-06-13T22:18:14.210Z,98837.55
2018-06-13T22:20:42.595Z,98841.65
2018-06-13T22:23:10.905Z,98838.23
2018-06-13T22:25:39.231Z,98835.58
2018-06-13T22:28:07.524Z,98840.03
2018-06-13T22:30:35.855Z,98839.41
2018-06-13T22:33:04.163Z,98841.15
2018-06-13T22:35:32.690Z,98840.91
2018-06-13T22:38:01.007Z,98845.26
2018-06-13T22:40:29.336Z,98845.17
2018-06-13T22:42:57.634Z,98846.47
2018-06-13T22:45:26.034Z,98838.52
2018-06-13T22:47:54.338Z,98844.64
2018-06-13T22:50:22.678Z,98844.64
2018-06-13T22:52:51.013Z,98846.95
2018-06-13T22:55:19.458Z,98854.27
2018-06-13T22:57:48.161Z,98844.66
2018-06-13T23:00:29.592Z,98847.22
2018-06-13T23:02:57.902Z,98852.53
2018-06-13T23:05:26.223Z,98848.15
2018-06-13T23:07:54.929Z,98847.72
2018-06-13T23:10:23.221Z,98845.34
2018-06-13T23:12:51.731Z,98850.02
2018-06-13T23:15:20.005Z,98854.61
2018-06-13T23:17:48.332Z,98845.49
2018-06-13T23:20:16.727Z,98850.58
2018-06-13T23:22:45.002Z,98852.23
2018-06-13T23:25:13.383Z,98855.16
2018-06-13T23:27:41.771Z,98847.43
2018-06-13T23:30:10.066Z,98854.06
2018-06-13T23:32:38.463Z,98849.72
2018-06-13T23:35:06.758Z,98858.14
2018-06-13T23:37:35.079Z,98854.22
2018-06-13T23:40:03.374Z,98859.12
2018-06-13T23:42:31.757Z,98854.94
2018-06-13T23:45:00.056Z,98854.84
2018-06-13T23:47:28.570Z,98861.79
2018-06-13T23:49:57.050Z,98857.66
2018-06-13T23:52:25.379Z,98853.80
2018-06-13T23:54:53.666Z,98856.89
2018-06-13T23:57:21.982Z,98853.09
2018-06-13T23:59:50.271Z,98853.32
